sensor_id;sensor_type;location;lat;lon;timestamp;temperature;humidity
7331;DHT22;3706;49.198;7.064;2022-12-11T00:01:49;-4.90;99.90
7331;DHT22;3706;49.198;7.064;2022-12-11T00:04:16;-4.90;99.90
7331;DHT22;3706;49.198;7.064;2022-12-11T00:06:43;-4.70;99.90
7331;DHT22;3706;49.198;7.064;2022-12-11T00:09:11;-4.60;99.90
7331;DHT22;3706;49.198;7.064;2022-12-11T00:11:38;-4.40;99.90
7331;DHT22;3706;49.198;7.064;2022-12-11T00:14:05;-4.10;99.90
7331;DHT22;3706;49.198;7.064;2022-12-11T00:16:32;-3.80;99.90
7331;DHT22;3706;49.198;7.064;2022-12-11T00:18:59;-3.50;99.90
7331;DHT22;3706;49.198;7.064;2022-12-11T00:21:26;-3.20;99.90
7331;DHT22;3706;49.198;7.064;2022-12-11T00:23:53;-3.00;99.90
7331;DHT22;3706;49.198;7.064;2022-12-11T00:26:21;-2.90;99.90
7331;DHT22;3706;49.198;7.064;2022-12-11T00:28:52;-2.80;99.90
7331;DHT22;3706;49.198;7.064;2022-12-11T00:31:20;-2.60;99.90
7331;DHT22;3706;49.198;7.064;2022-12-11T00:33:48;-2.60;99.90
7331;DHT22;3706;49.198;7.064;2022-12-11T00:36:17;-2.40;99.90
7331;DHT22;3706;49.198;7.064;2022-12-11T00:38:44;-2.30;99.90
7331;DHT22;3706;49.198;7.064;2022-12-11T00:41:11;-2.10;99.90
7331;DHT22;3706;49.198;7.064;2022-12-11T00:43:40;-1.80;99.90
7331;DHT22;3706;49.198;7.064;2022-12-11T00:46:07;-1.80;99.90
7331;DHT22;3706;49.198;7.064;2022-12-11T00:48:34;-1.80;99.90
7331;DHT22;3706;49.198;7.064;2022-12-11T00:51:01;-1.60;99.90
7331;DHT22;3706;49.198;7.064;2022-12-11T00:53:28;-1.60;99.90
7331;DHT22;3706;49.198;7.064;2022-12-11T00:55:55;-1.60;99.90
7331;DHT22;3706;49.198;7.064;2022-12-11T00:58:21;-1.60;99.90
7331;DHT22;3706;49.198;7.064;2022-12-11T01:00:50;-1.70;99.90
7331;DHT22;3706;49.198;7.064;2022-12-11T01:03:17;-1.90;99.90
7331;DHT22;3706;49.198;7.064;2022-12-11T01:05:51;-2.00;99.90
7331;DHT22;3706;49.198;7.064;2022-12-11T01:08:18;-2.20;99.90
7331;DHT22;3706;49.198;7.064;2022-12-11T01:10:45;-2.20;99.90
7331;DHT22;3706;49.198;7.064;2022-12-11T01:13:11;-2.30;99.90
7331;DHT22;3706;49.198;7.064;2022-12-11T01:15:40;-2.30;99.90
7331;DHT22;3706;49.198;7.064;2022-12-11T01:18:10;-2.30;99.90
7331;DHT22;3706;49.198;7.064;2022-12-11T01:20:38;-2.10;99.90
7331;DHT22;3706;49.198;7.064;2022-12-11T01:23:05;-1.90;99.90
7331;DHT22;3706;49.198;7.064;2022-12-11T01:25:35;-1.70;99.90
7331;DHT22;3706;49.198;7.064;2022-12-11T01:28:04;-1.60;99.90
7331;DHT22;3706;49.198;7.064;2022-12-11T01:30:31;-1.50;99.90
7331;DHT22;3706;49.198;7.064;2022-12-11T01:32:58;-1.40;99.90
7331;DHT22;3706;49.198;7.064;2022-12-11T01:35:27;-1.50;99.90
7331;DHT22;3706;49.198;7.064;2022-12-11T01:37:54;-1.60;99.90
7331;DHT22;3706;49.198;7.064;2022-12-11T01:40:21;-1.80;99.90
7331;DHT22;3706;49.198;7.064;2022-12-11T01:42:48;-2.10;99.90
7331;DHT22;3706;49.198;7.064;2022-12-11T01:45:31;-2.30;99.90
7331;DHT22;3706;49.198;7.064;2022-12-11T01:48:02;-2.40;99.90
7331;DHT22;3706;49.198;7.064;2022-12-11T01:50:33;-2.50;99.90
7331;DHT22;3706;49.198;7.064;2022-12-11T01:53:01;-2.60;99.90
7331;DHT22;3706;49.198;7.064;2022-12-11T01:55:30;-2.60;99.90
7331;DHT22;3706;49.198;7.064;2022-12-11T01:57:58;-2.60;99.90
7331;DHT22;3706;49.198;7.064;2022-12-11T02:00:26;-2.60;99.90
7331;DHT22;3706;49.198;7.064;2022-12-11T02:02:53;-2.70;99.90
7331;DHT22;3706;49.198;7.064;2022-12-11T02:05:20;-2.70;99.90
7331;DHT22;3706;49.198;7.064;2022-12-11T02:07:51;-2.60;99.90
7331;DHT22;3706;49.198;7.064;2022-12-11T02:10:21;-2.60;99.90
7331;DHT22;3706;49.198;7.064;2022-12-11T02:12:57;-2.60;99.90
7331;DHT22;3706;49.198;7.064;2022-12-11T02:15:31;-2.60;99.90
7331;DHT22;3706;49.198;7.064;2022-12-11T02:18:10;-2.40;99.90
7331;DHT22;3706;49.198;7.064;2022-12-11T02:20:42;-2.40;99.90
7331;DHT22;3706;49.198;7.064;2022-12-11T02:23:34;-2.30;99.90
7331;DHT22;3706;49.198;7.064;2022-12-11T02:26:16;-2.20;99.90
7331;DHT22;3706;49.198;7.064;2022-12-11T02:28:51;-2.10;99.90
7331;DHT22;3706;49.198;7.064;2022-12-11T02:31:26;-2.10;99.90
7331;DHT22;3706;49.198;7.064;2022-12-11T02:33:58;-2.10;99.90
7331;DHT22;3706;49.198;7.064;2022-12-11T02:36:31;-2.10;99.90
7331;DHT22;3706;49.198;7.064;2022-12-11T02:39:00;-2.10;99.90
7331;DHT22;3706;49.198;7.064;2022-12-11T02:41:29;-2.10;99.90
7331;DHT22;3706;49.198;7.064;2022-12-11T02:43:58;-2.00;99.90
7331;DHT22;3706;49.198;7.064;2022-12-11T02:46:28;-2.00;99.90
7331;DHT22;3706;49.198;7.064;2022-12-11T02:48:57;-2.00;99.90
7331;DHT22;3706;49.198;7.064;2022-12-11T02:51:27;-1.80;99.90
7331;DHT22;3706;49.198;7.064;2022-12-11T02:53:57;-1.90;99.90
7331;DHT22;3706;49.198;7.064;2022-12-11T02:56:29;-1.90;99.90
7331;DHT22;3706;49.198;7.064;2022-12-11T02:59:05;-1.90;99.90
7331;DHT22;3706;49.198;7.064;2022-12-11T03:01:33;-2.00;99.90
7331;DHT22;3706;49.198;7.064;2022-12-11T03:04:00;-2.00;99.90
7331;DHT22;3706;49.198;7.064;2022-12-11T03:06:31;-2.10;99.90
7331;DHT22;3706;49.198;7.064;2022-12-11T03:09:00;-2.10;99.90
7331;DHT22;3706;49.198;7.064;2022-12-11T03:11:27;-2.00;99.90
7331;DHT22;3706;49.198;7.064;2022-12-11T03:13:54;-2.10;99.90
7331;DHT22;3706;49.198;7.064;2022-12-11T03:16:28;-2.10;99.90
7331;DHT22;3706;49.198;7.064;2022-12-11T03:19:04;-2.10;99.90
7331;DHT22;3706;49.198;7.064;2022-12-11T03:21:36;-2.20;99.90
7331;DHT22;3706;49.198;7.064;2022-12-11T03:24:07;-2.10;99.90
7331;DHT22;3706;49.198;7.064;2022-12-11T03:26:39;-2.10;99.90
7331;DHT22;3706;49.198;7.064;2022-12-11T03:29:14;-1.90;99.90
7331;DHT22;3706;49.198;7.064;2022-12-11T03:31:45;-1.90;99.90
7331;DHT22;3706;49.198;7.064;2022-12-11T03:34:20;-2.00;99.90
7331;DHT22;3706;49.198;7.064;2022-12-11T03:36:49;-2.00;99.90
7331;DHT22;3706;49.198;7.064;2022-12-11T03:39:19;-2.10;99.90
7331;DHT22;3706;49.198;7.064;2022-12-11T03:41:48;-2.10;99.90
7331;DHT22;3706;49.198;7.064;2022-12-11T03:44:17;-2.10;99.90
7331;DHT22;3706;49.198;7.064;2022-12-11T03:46:47;-2.10;99.90
7331;DHT22;3706;49.198;7.064;2022-12-11T03:49:18;-2.20;99.90
7331;DHT22;3706;49.198;7.064;2022-12-11T03:51:47;-2.10;99.90
7331;DHT22;3706;49.198;7.064;2022-12-11T03:54:15;-2.10;99.90
7331;DHT22;3706;49.198;7.064;2022-12-11T03:56:44;-2.00;99.90
7331;DHT22;3706;49.198;7.064;2022-12-11T03:59:11;-1.90;99.90
7331;DHT22;3706;49.198;7.064;2022-12-11T04:01:39;-1.90;99.90
7331;DHT22;3706;49.198;7.064;2022-12-11T04:04:07;-1.90;99.90
7331;DHT22;3706;49.198;7.064;2022-12-11T04:06:34;-1.90;99.90
7331;DHT22;3706;49.198;7.064;2022-12-11T04:09:01;-1.90;99.90
7331;DHT22;3706;49.198;7.064;2022-12-11T04:11:27;-1.90;99.90
7331;DHT22;3706;49.198;7.064;2022-12-11T04:14:01;-1.90;99.90
7331;DHT22;3706;49.198;7.064;2022-12-11T04:16:45;-1.90;99.90
7331;DHT22;3706;49.198;7.064;2022-12-11T04:19:14;-1.80;99.90
7331;DHT22;3706;49.198;7.064;2022-12-11T04:21:59;-1.70;99.90
7331;DHT22;3706;49.198;7.064;2022-12-11T04:24:43;-1.70;99.90
7331;DHT22;3706;49.198;7.064;2022-12-11T04:27:10;-1.50;99.90
7331;DHT22;3706;49.198;7.064;2022-12-11T04:29:37;-1.40;99.90
7331;DHT22;3706;49.198;7.064;2022-12-11T04:32:04;-1.40;99.90
7331;DHT22;3706;49.198;7.064;2022-12-11T04:34:32;-1.40;99.90
7331;DHT22;3706;49.198;7.064;2022-12-11T04:36:59;-1.50;99.90
7331;DHT22;3706;49.198;7.064;2022-12-11T04:39:26;-1.50;99.90
7331;DHT22;3706;49.198;7.064;2022-12-11T04:41:53;-1.50;99.90
7331;DHT22;3706;49.198;7.064;2022-12-11T04:44:20;-1.30;99.90
7331;DHT22;3706;49.198;7.064;2022-12-11T04:46:47;-1.30;99.90
7331;DHT22;3706;49.198;7.064;2022-12-11T04:49:13;-1.40;99.90
7331;DHT22;3706;49.198;7.064;2022-12-11T04:51:42;-1.50;99.90
7331;DHT22;3706;49.198;7.064;2022-12-11T04:54:09;-1.60;99.90
7331;DHT22;3706;49.198;7.064;2022-12-11T04:56:35;-1.60;99.90
7331;DHT22;3706;49.198;7.064;2022-12-11T04:59:02;-1.40;99.90
7331;DHT22;3706;49.198;7.064;2022-12-11T05:01:29;-1.50;99.90
7331;DHT22;3706;49.198;7.064;2022-12-11T05:03:58;-1.50;99.90
7331;DHT22;3706;49.198;7.064;2022-12-11T05:06:25;-1.50;99.90
7331;DHT22;3706;49.198;7.064;2022-12-11T05:08:53;-1.50;99.90
7331;DHT22;3706;49.198;7.064;2022-12-11T05:11:20;-1.20;99.90
7331;DHT22;3706;49.198;7.064;2022-12-11T05:13:47;-1.10;99.90
7331;DHT22;3706;49.198;7.064;2022-12-11T05:16:15;-1.10;99.90
7331;DHT22;3706;49.198;7.064;2022-12-11T05:18:42;-1.00;99.90
7331;DHT22;3706;49.198;7.064;2022-12-11T05:21:12;-1.00;99.90
7331;DHT22;3706;49.198;7.064;2022-12-11T05:23:40;-1.10;99.90
7331;DHT22;3706;49.198;7.064;2022-12-11T05:26:11;-1.10;99.90
7331;DHT22;3706;49.198;7.064;2022-12-11T05:28:39;-1.20;99.90
7331;DHT22;3706;49.198;7.064;2022-12-11T05:31:09;-1.20;99.90
7331;DHT22;3706;49.198;7.064;2022-12-11T05:33:37;-1.30;99.90
7331;DHT22;3706;49.198;7.064;2022-12-11T05:36:05;-1.40;99.90
7331;DHT22;3706;49.198;7.064;2022-12-11T05:38:33;-1.40;99.90
7331;DHT22;3706;49.198;7.064;2022-12-11T05:41:02;-1.40;99.90
7331;DHT22;3706;49.198;7.064;2022-12-11T05:43:32;-1.50;99.90
7331;DHT22;3706;49.198;7.064;2022-12-11T05:46:05;-1.40;99.90
7331;DHT22;3706;49.198;7.064;2022-12-11T05:48:32;-1.50;99.90
7331;DHT22;3706;49.198;7.064;2022-12-11T05:51:00;-1.60;99.90
7331;DHT22;3706;49.198;7.064;2022-12-11T05:53:28;-1.50;99.90
7331;DHT22;3706;49.198;7.064;2022-12-11T05:56:00;-1.60;99.90
7331;DHT22;3706;49.198;7.064;2022-12-11T05:58:28;-1.40;99.90
7331;DHT22;3706;49.198;7.064;2022-12-11T06:00:56;-1.60;99.90
7331;DHT22;3706;49.198;7.064;2022-12-11T06:03:23;-1.70;99.90
7331;DHT22;3706;49.198;7.064;2022-12-11T06:05:50;-1.60;99.90
7331;DHT22;3706;49.198;7.064;2022-12-11T06:08:17;-1.60;99.90
7331;DHT22;3706;49.198;7.064;2022-12-11T06:10:44;-1.50;99.90
7331;DHT22;3706;49.198;7.064;2022-12-11T06:13:11;-1.50;99.90
7331;DHT22;3706;49.198;7.064;2022-12-11T06:15:38;-1.60;99.90
7331;DHT22;3706;49.198;7.064;2022-12-11T06:18:07;-1.50;99.90
7331;DHT22;3706;49.198;7.064;2022-12-11T06:20:34;-1.50;99.90
7331;DHT22;3706;49.198;7.064;2022-12-11T06:23:01;-1.50;99.90
7331;DHT22;3706;49.198;7.064;2022-12-11T06:25:28;-1.30;99.90
7331;DHT22;3706;49.198;7.064;2022-12-11T06:27:55;-1.20;99.90
7331;DHT22;3706;49.198;7.064;2022-12-11T06:30:22;-1.20;99.90
7331;DHT22;3706;49.198;7.064;2022-12-11T06:32:50;-1.10;99.90
7331;DHT22;3706;49.198;7.064;2022-12-11T06:35:18;-1.00;99.90
7331;DHT22;3706;49.198;7.064;2022-12-11T06:37:45;-1.00;99.90
7331;DHT22;3706;49.198;7.064;2022-12-11T06:40:12;-0.90;99.90
7331;DHT22;3706;49.198;7.064;2022-12-11T06:42:38;-1.10;99.90
7331;DHT22;3706;49.198;7.064;2022-12-11T06:45:06;-1.20;99.90
7331;DHT22;3706;49.198;7.064;2022-12-11T06:47:33;-1.10;99.90
7331;DHT22;3706;49.198;7.064;2022-12-11T06:50:00;-1.10;99.90
7331;DHT22;3706;49.198;7.064;2022-12-11T06:52:29;-1.10;99.90
7331;DHT22;3706;49.198;7.064;2022-12-11T06:54:56;-1.00;99.90
7331;DHT22;3706;49.198;7.064;2022-12-11T06:57:22;-0.90;99.90
7331;DHT22;3706;49.198;7.064;2022-12-11T06:59:49;-1.00;99.90
7331;DHT22;3706;49.198;7.064;2022-12-11T07:02:18;-1.10;99.90
7331;DHT22;3706;49.198;7.064;2022-12-11T07:04:45;-1.10;99.90
7331;DHT22;3706;49.198;7.064;2022-12-11T07:07:12;-1.20;99.90
7331;DHT22;3706;49.198;7.064;2022-12-11T07:09:40;-1.10;99.90
7331;DHT22;3706;49.198;7.064;2022-12-11T07:12:07;-1.00;99.90
7331;DHT22;3706;49.198;7.064;2022-12-11T07:14:34;-1.20;99.90
7331;DHT22;3706;49.198;7.064;2022-12-11T07:17:01;-1.30;99.90
7331;DHT22;3706;49.198;7.064;2022-12-11T07:19:28;-1.30;99.90
7331;DHT22;3706;49.198;7.064;2022-12-11T07:21:55;-1.30;99.90
7331;DHT22;3706;49.198;7.064;2022-12-11T07:24:22;-1.40;99.90
7331;DHT22;3706;49.198;7.064;2022-12-11T07:26:50;-1.40;99.90
7331;DHT22;3706;49.198;7.064;2022-12-11T07:29:18;-1.40;99.90
7331;DHT22;3706;49.198;7.064;2022-12-11T07:31:45;-1.30;99.90
7331;DHT22;3706;49.198;7.064;2022-12-11T07:34:13;-1.40;99.90
7331;DHT22;3706;49.198;7.064;2022-12-11T07:36:40;-1.40;99.90
7331;DHT22;3706;49.198;7.064;2022-12-11T07:39:09;-1.30;99.90
7331;DHT22;3706;49.198;7.064;2022-12-11T07:41:37;-1.40;99.90
7331;DHT22;3706;49.198;7.064;2022-12-11T07:44:05;-1.30;99.90
7331;DHT22;3706;49.198;7.064;2022-12-11T07:46:32;-1.40;99.90
7331;DHT22;3706;49.198;7.064;2022-12-11T07:49:00;-1.40;99.90
7331;DHT22;3706;49.198;7.064;2022-12-11T07:51:29;-1.40;99.90
7331;DHT22;3706;49.198;7.064;2022-12-11T07:53:58;-1.40;99.90
7331;DHT22;3706;49.198;7.064;2022-12-11T07:56:27;-1.40;99.90
7331;DHT22;3706;49.198;7.064;2022-12-11T07:58:54;-1.20;99.90
7331;DHT22;3706;49.198;7.064;2022-12-11T08:01:24;-1.10;99.90
7331;DHT22;3706;49.198;7.064;2022-12-11T08:03:52;-0.90;99.90
7331;DHT22;3706;49.198;7.064;2022-12-11T08:06:24;-1.00;99.90
7331;DHT22;3706;49.198;7.064;2022-12-11T08:08:52;-0.90;99.90
7331;DHT22;3706;49.198;7.064;2022-12-11T08:11:19;-1.00;99.90
7331;DHT22;3706;49.198;7.064;2022-12-11T08:13:47;-1.10;99.90
7331;DHT22;3706;49.198;7.064;2022-12-11T08:16:15;-1.20;99.90
7331;DHT22;3706;49.198;7.064;2022-12-11T08:18:45;-1.20;99.90
7331;DHT22;3706;49.198;7.064;2022-12-11T08:21:13;-1.20;99.90
7331;DHT22;3706;49.198;7.064;2022-12-11T08:23:40;-1.20;99.90
7331;DHT22;3706;49.198;7.064;2022-12-11T08:26:09;-1.30;99.90
7331;DHT22;3706;49.198;7.064;2022-12-11T08:28:37;-1.10;99.90
7331;DHT22;3706;49.198;7.064;2022-12-11T08:31:04;-1.00;99.90
7331;DHT22;3706;49.198;7.064;2022-12-11T08:33:32;-0.80;99.90
7331;DHT22;3706;49.198;7.064;2022-12-11T08:36:03;-0.60;99.90
7331;DHT22;3706;49.198;7.064;2022-12-11T08:38:30;-0.40;99.90
7331;DHT22;3706;49.198;7.064;2022-12-11T08:40:57;-0.40;99.90
7331;DHT22;3706;49.198;7.064;2022-12-11T08:43:24;-0.30;99.90
7331;DHT22;3706;49.198;7.064;2022-12-11T08:45:51;-0.20;99.90
7331;DHT22;3706;49.198;7.064;2022-12-11T08:48:18;-0.20;99.90
7331;DHT22;3706;49.198;7.064;2022-12-11T08:50:45;-0.10;99.90
7331;DHT22;3706;49.198;7.064;2022-12-11T08:53:13;0.00;99.90
7331;DHT22;3706;49.198;7.064;2022-12-11T08:55:40;0.00;99.90
7331;DHT22;3706;49.198;7.064;2022-12-11T08:58:07;0.10;99.90
7331;DHT22;3706;49.198;7.064;2022-12-11T09:00:34;-0.20;99.90
7331;DHT22;3706;49.198;7.064;2022-12-11T09:03:01;-0.30;99.90
7331;DHT22;3706;49.198;7.064;2022-12-11T09:05:28;-0.50;99.90
7331;DHT22;3706;49.198;7.064;2022-12-11T09:07:55;-0.60;99.90
7331;DHT22;3706;49.198;7.064;2022-12-11T09:10:25;-0.70;99.90
7331;DHT22;3706;49.198;7.064;2022-12-11T09:12:51;-0.70;99.90
7331;DHT22;3706;49.198;7.064;2022-12-11T09:15:18;-0.80;99.90
7331;DHT22;3706;49.198;7.064;2022-12-11T09:17:45;-0.80;99.90
7331;DHT22;3706;49.198;7.064;2022-12-11T09:20:12;-0.80;99.90
7331;DHT22;3706;49.198;7.064;2022-12-11T09:22:40;-0.80;99.90
7331;DHT22;3706;49.198;7.064;2022-12-11T09:25:07;-0.80;99.90
7331;DHT22;3706;49.198;7.064;2022-12-11T09:27:36;-0.70;99.90
7331;DHT22;3706;49.198;7.064;2022-12-11T09:30:04;-0.70;99.90
7331;DHT22;3706;49.198;7.064;2022-12-11T09:32:31;-0.50;99.90
7331;DHT22;3706;49.198;7.064;2022-12-11T09:34:58;-0.30;99.90
7331;DHT22;3706;49.198;7.064;2022-12-11T09:37:25;-0.50;99.90
7331;DHT22;3706;49.198;7.064;2022-12-11T09:39:52;-0.50;99.90
7331;DHT22;3706;49.198;7.064;2022-12-11T09:42:22;-0.40;99.90
7331;DHT22;3706;49.198;7.064;2022-12-11T09:44:54;-0.50;99.90
7331;DHT22;3706;49.198;7.064;2022-12-11T09:47:26;-0.60;99.90
7331;DHT22;3706;49.198;7.064;2022-12-11T09:50:02;-0.60;99.90
7331;DHT22;3706;49.198;7.064;2022-12-11T09:52:34;-0.60;99.90
7331;DHT22;3706;49.198;7.064;2022-12-11T09:55:11;-0.60;99.90
7331;DHT22;3706;49.198;7.064;2022-12-11T09:57:45;-0.50;99.90
7331;DHT22;3706;49.198;7.064;2022-12-11T10:00:20;-0.60;99.90
7331;DHT22;3706;49.198;7.064;2022-12-11T10:05:47;-0.30;99.90
7331;DHT22;3706;49.198;7.064;2022-12-11T10:08:20;0.00;99.90
7331;DHT22;3706;49.198;7.064;2022-12-11T10:10:55;0.10;99.90
7331;DHT22;3706;49.198;7.064;2022-12-11T10:13:29;0.20;99.90
7331;DHT22;3706;49.198;7.064;2022-12-11T10:16:07;0.20;99.90
7331;DHT22;3706;49.198;7.064;2022-12-11T10:18:38;0.20;99.90
7331;DHT22;3706;49.198;7.064;2022-12-11T10:21:06;0.30;99.90
7331;DHT22;3706;49.198;7.064;2022-12-11T10:23:37;0.20;99.90
7331;DHT22;3706;49.198;7.064;2022-12-11T10:26:08;0.10;99.90
7331;DHT22;3706;49.198;7.064;2022-12-11T10:28:36;0.20;99.90
7331;DHT22;3706;49.198;7.064;2022-12-11T10:31:09;0.20;99.90
7331;DHT22;3706;49.198;7.064;2022-12-11T10:33:48;0.30;99.90
7331;DHT22;3706;49.198;7.064;2022-12-11T10:36:26;0.20;99.90
7331;DHT22;3706;49.198;7.064;2022-12-11T10:38:53;0.30;99.90
7331;DHT22;3706;49.198;7.064;2022-12-11T10:41:23;0.10;99.90
7331;DHT22;3706;49.198;7.064;2022-12-11T10:43:52;0.20;99.90
7331;DHT22;3706;49.198;7.064;2022-12-11T10:46:21;0.40;99.90
7331;DHT22;3706;49.198;7.064;2022-12-11T10:48:50;0.50;99.90
7331;DHT22;3706;49.198;7.064;2022-12-11T10:51:20;0.40;99.90
7331;DHT22;3706;49.198;7.064;2022-12-11T10:53:51;0.30;99.90
7331;DHT22;3706;49.198;7.064;2022-12-11T10:56:24;0.40;99.90
7331;DHT22;3706;49.198;7.064;2022-12-11T10:58:52;0.50;99.90
7331;DHT22;3706;49.198;7.064;2022-12-11T11:01:21;0.60;99.90
7331;DHT22;3706;49.198;7.064;2022-12-11T11:03:55;0.60;99.90
7331;DHT22;3706;49.198;7.064;2022-12-11T11:06:23;0.70;99.90
7331;DHT22;3706;49.198;7.064;2022-12-11T11:08:52;0.80;99.90
7331;DHT22;3706;49.198;7.064;2022-12-11T11:11:22;0.80;99.90
7331;DHT22;3706;49.198;7.064;2022-12-11T11:13:50;0.90;99.90
7331;DHT22;3706;49.198;7.064;2022-12-11T11:16:21;0.80;99.90
7331;DHT22;3706;49.198;7.064;2022-12-11T11:18:50;1.00;99.90
7331;DHT22;3706;49.198;7.064;2022-12-11T11:21:19;1.30;99.90
7331;DHT22;3706;49.198;7.064;2022-12-11T11:23:47;1.50;99.90
7331;DHT22;3706;49.198;7.064;2022-12-11T11:26:14;1.60;99.90
7331;DHT22;3706;49.198;7.064;2022-12-11T11:28:46;1.60;99.90
7331;DHT22;3706;49.198;7.064;2022-12-11T11:31:15;1.70;99.90
7331;DHT22;3706;49.198;7.064;2022-12-11T11:33:52;1.90;99.90
7331;DHT22;3706;49.198;7.064;2022-12-11T11:36:22;2.00;99.90
7331;DHT22;3706;49.198;7.064;2022-12-11T11:39:11;2.10;99.90
7331;DHT22;3706;49.198;7.064;2022-12-11T11:41:43;2.10;99.90
7331;DHT22;3706;49.198;7.064;2022-12-11T11:44:15;2.00;99.90
7331;DHT22;3706;49.198;7.064;2022-12-11T11:46:46;1.90;99.90
7331;DHT22;3706;49.198;7.064;2022-12-11T11:49:20;1.80;99.90
7331;DHT22;3706;49.198;7.064;2022-12-11T11:51:53;1.70;99.90
7331;DHT22;3706;49.198;7.064;2022-12-11T11:54:29;1.70;99.90
7331;DHT22;3706;49.198;7.064;2022-12-11T11:56:58;1.90;99.90
7331;DHT22;3706;49.198;7.064;2022-12-11T11:59:29;2.10;99.90
7331;DHT22;3706;49.198;7.064;2022-12-11T12:01:57;2.30;99.90
7331;DHT22;3706;49.198;7.064;2022-12-11T12:04:30;2.30;99.90
7331;DHT22;3706;49.198;7.064;2022-12-11T12:07:13;2.30;99.90
7331;DHT22;3706;49.198;7.064;2022-12-11T12:09:48;2.30;99.90
7331;DHT22;3706;49.198;7.064;2022-12-11T12:12:31;2.20;99.90
7331;DHT22;3706;49.198;7.064;2022-12-11T12:15:17;2.20;99.90
7331;DHT22;3706;49.198;7.064;2022-12-11T12:17:50;2.10;99.90
7331;DHT22;3706;49.198;7.064;2022-12-11T12:20:27;2.20;99.90
7331;DHT22;3706;49.198;7.064;2022-12-11T12:23:31;2.50;99.90
7331;DHT22;3706;49.198;7.064;2022-12-11T12:26:07;2.70;99.90
7331;DHT22;3706;49.198;7.064;2022-12-11T12:28:41;2.90;99.90
7331;DHT22;3706;49.198;7.064;2022-12-11T12:31:22;3.00;99.90
7331;DHT22;3706;49.198;7.064;2022-12-11T12:33:59;3.00;99.90
7331;DHT22;3706;49.198;7.064;2022-12-11T12:36:36;2.90;99.90
7331;DHT22;3706;49.198;7.064;2022-12-11T12:39:13;2.80;99.90
7331;DHT22;3706;49.198;7.064;2022-12-11T12:41:50;2.70;99.90
7331;DHT22;3706;49.198;7.064;2022-12-11T12:44:21;2.60;99.90
7331;DHT22;3706;49.198;7.064;2022-12-11T12:46:55;2.50;99.90
7331;DHT22;3706;49.198;7.064;2022-12-11T12:49:36;2.50;99.90
7331;DHT22;3706;49.198;7.064;2022-12-11T12:52:09;2.30;99.90
7331;DHT22;3706;49.198;7.064;2022-12-11T12:54:38;2.20;99.90
7331;DHT22;3706;49.198;7.064;2022-12-11T12:57:06;2.10;99.90
7331;DHT22;3706;49.198;7.064;2022-12-11T12:59:33;2.10;99.90
7331;DHT22;3706;49.198;7.064;2022-12-11T13:02:02;2.40;99.90
7331;DHT22;3706;49.198;7.064;2022-12-11T13:04:39;2.50;99.90
7331;DHT22;3706;49.198;7.064;2022-12-11T13:07:14;2.50;99.90
7331;DHT22;3706;49.198;7.064;2022-12-11T13:09:42;2.60;99.90
7331;DHT22;3706;49.198;7.064;2022-12-11T13:12:14;2.50;99.90
7331;DHT22;3706;49.198;7.064;2022-12-11T13:14:41;2.60;99.90
7331;DHT22;3706;49.198;7.064;2022-12-11T13:17:33;2.50;99.90
7331;DHT22;3706;49.198;7.064;2022-12-11T13:20:15;2.70;99.90
7331;DHT22;3706;49.198;7.064;2022-12-11T13:22:50;2.70;99.90
7331;DHT22;3706;49.198;7.064;2022-12-11T13:25:22;2.70;99.90
7331;DHT22;3706;49.198;7.064;2022-12-11T13:27:49;2.50;99.90
7331;DHT22;3706;49.198;7.064;2022-12-11T13:30:23;2.40;99.90
7331;DHT22;3706;49.198;7.064;2022-12-11T13:33:00;2.30;99.90
7331;DHT22;3706;49.198;7.064;2022-12-11T13:35:29;2.20;99.90
7331;DHT22;3706;49.198;7.064;2022-12-11T13:38:02;2.10;99.90
7331;DHT22;3706;49.198;7.064;2022-12-11T13:40:37;2.00;99.90
7331;DHT22;3706;49.198;7.064;2022-12-11T13:43:14;1.90;99.90
7331;DHT22;3706;49.198;7.064;2022-12-11T13:45:47;1.70;99.90
7331;DHT22;3706;49.198;7.064;2022-12-11T13:48:20;1.40;99.90
7331;DHT22;3706;49.198;7.064;2022-12-11T13:50:49;1.30;99.90
7331;DHT22;3706;49.198;7.064;2022-12-11T13:53:19;1.20;99.90
7331;DHT22;3706;49.198;7.064;2022-12-11T13:55:55;1.20;99.90
7331;DHT22;3706;49.198;7.064;2022-12-11T13:58:22;1.20;99.90
7331;DHT22;3706;49.198;7.064;2022-12-11T14:00:59;1.10;99.90
7331;DHT22;3706;49.198;7.064;2022-12-11T14:03:29;1.00;99.90
7331;DHT22;3706;49.198;7.064;2022-12-11T14:05:57;0.90;99.90
7331;DHT22;3706;49.198;7.064;2022-12-11T14:08:30;0.90;99.90
7331;DHT22;3706;49.198;7.064;2022-12-11T14:10:59;0.70;99.90
7331;DHT22;3706;49.198;7.064;2022-12-11T14:13:30;0.60;99.90
7331;DHT22;3706;49.198;7.064;2022-12-11T14:15:59;0.50;99.90
7331;DHT22;3706;49.198;7.064;2022-12-11T14:18:28;0.50;99.90
7331;DHT22;3706;49.198;7.064;2022-12-11T14:20:57;0.40;99.90
7331;DHT22;3706;49.198;7.064;2022-12-11T14:23:28;0.40;99.90
7331;DHT22;3706;49.198;7.064;2022-12-11T14:25:56;0.30;99.90
7331;DHT22;3706;49.198;7.064;2022-12-11T14:28:25;0.30;99.90
7331;DHT22;3706;49.198;7.064;2022-12-11T14:30:55;0.30;99.90
7331;DHT22;3706;49.198;7.064;2022-12-11T14:33:26;0.20;99.90
7331;DHT22;3706;49.198;7.064;2022-12-11T14:35:54;0.20;99.90
7331;DHT22;3706;49.198;7.064;2022-12-11T14:38:24;0.10;99.90
7331;DHT22;3706;49.198;7.064;2022-12-11T14:40:57;0.20;99.90
7331;DHT22;3706;49.198;7.064;2022-12-11T14:43:29;0.10;99.90
7331;DHT22;3706;49.198;7.064;2022-12-11T14:46:01;0.30;99.90
7331;DHT22;3706;49.198;7.064;2022-12-11T14:48:33;0.10;99.90
7331;DHT22;3706;49.198;7.064;2022-12-11T14:51:04;0.10;99.90
7331;DHT22;3706;49.198;7.064;2022-12-11T14:53:35;0.10;99.90
7331;DHT22;3706;49.198;7.064;2022-12-11T14:56:06;0.00;99.90
7331;DHT22;3706;49.198;7.064;2022-12-11T14:58:40;-0.10;99.90
7331;DHT22;3706;49.198;7.064;2022-12-11T15:01:20;-0.20;99.90
7331;DHT22;3706;49.198;7.064;2022-12-11T15:03:48;-0.20;99.90
7331;DHT22;3706;49.198;7.064;2022-12-11T15:06:23;-0.30;99.90
7331;DHT22;3706;49.198;7.064;2022-12-11T15:08:53;-0.30;99.90
7331;DHT22;3706;49.198;7.064;2022-12-11T15:11:22;-0.30;99.90
7331;DHT22;3706;49.198;7.064;2022-12-11T15:13:52;-0.30;99.90
7331;DHT22;3706;49.198;7.064;2022-12-11T15:16:21;-0.20;99.90
7331;DHT22;3706;49.198;7.064;2022-12-11T15:18:50;-0.10;99.90
7331;DHT22;3706;49.198;7.064;2022-12-11T15:21:18;0.00;99.90
7331;DHT22;3706;49.198;7.064;2022-12-11T15:23:54;0.00;99.90
7331;DHT22;3706;49.198;7.064;2022-12-11T15:26:33;0.00;99.90
7331;DHT22;3706;49.198;7.064;2022-12-11T15:29:02;-0.10;99.90
7331;DHT22;3706;49.198;7.064;2022-12-11T15:31:31;-0.20;99.90
7331;DHT22;3706;49.198;7.064;2022-12-11T15:33:59;-0.30;99.90
7331;DHT22;3706;49.198;7.064;2022-12-11T15:36:30;-0.30;99.90
7331;DHT22;3706;49.198;7.064;2022-12-11T15:38:59;-0.30;99.90
7331;DHT22;3706;49.198;7.064;2022-12-11T15:41:26;-0.40;99.90
7331;DHT22;3706;49.198;7.064;2022-12-11T15:44:00;-0.40;99.90
7331;DHT22;3706;49.198;7.064;2022-12-11T15:46:28;-0.50;99.90
7331;DHT22;3706;49.198;7.064;2022-12-11T15:48:56;-0.50;99.90
7331;DHT22;3706;49.198;7.064;2022-12-11T15:51:23;-0.50;99.90
7331;DHT22;3706;49.198;7.064;2022-12-11T15:53:51;-0.60;99.90
7331;DHT22;3706;49.198;7.064;2022-12-11T15:56:18;-0.60;99.90
7331;DHT22;3706;49.198;7.064;2022-12-11T15:58:46;-0.70;99.90
7331;DHT22;3706;49.198;7.064;2022-12-11T16:01:15;-0.60;99.90
7331;DHT22;3706;49.198;7.064;2022-12-11T16:03:42;-0.80;99.90
7331;DHT22;3706;49.198;7.064;2022-12-11T16:06:11;-0.90;99.90
7331;DHT22;3706;49.198;7.064;2022-12-11T16:08:38;-0.80;99.90
7331;DHT22;3706;49.198;7.064;2022-12-11T16:11:05;-0.90;99.90
7331;DHT22;3706;49.198;7.064;2022-12-11T16:13:32;-0.80;99.90
7331;DHT22;3706;49.198;7.064;2022-12-11T16:15:59;-0.80;99.90
7331;DHT22;3706;49.198;7.064;2022-12-11T16:18:27;-0.80;99.90
7331;DHT22;3706;49.198;7.064;2022-12-11T16:20:54;-0.80;99.90
7331;DHT22;3706;49.198;7.064;2022-12-11T16:23:22;-0.80;99.90
7331;DHT22;3706;49.198;7.064;2022-12-11T16:25:49;-0.60;99.90
7331;DHT22;3706;49.198;7.064;2022-12-11T16:28:17;-0.80;99.90